createdAt,value
2023-04-04T00:01:52.628Z,55.73
2023-04-04T00:04:59.248Z,55.92
2023-04-04T00:08:05.300Z,55.69
2023-04-04T00:11:15.049Z,56.68
2023-04-04T00:14:21.216Z,56.74
2023-04-04T00:17:27.949Z,56.04
2023-04-04T00:20:33.819Z,56.16
2023-04-04T00:23:40.823Z,56.81
2023-04-04T00:26:49.451Z,55.82
2023-04-04T00:29:56.254Z,56.44
2023-04-04T00:33:02.431Z,56.37
2023-04-04T00:36:09.585Z,55.83
2023-04-04T00:39:15.359Z,55.77
2023-04-04T00:42:25.700Z,56.34
2023-04-04T00:45:32.082Z,56.79
2023-04-04T00:48:40.941Z,56.61
2023-04-04T00:51:46.737Z,55.86
2023-04-04T00:54:54.179Z,56.76
2023-04-04T00:58:04.032Z,57.01
2023-04-04T01:01:11.789Z,56.48
2023-04-04T01:04:18.069Z,57.35
2023-04-04T01:07:25.062Z,57.32
2023-04-04T01:10:33.665Z,57.05
2023-04-04T01:13:43.804Z,56.39
2023-04-04T01:16:54.725Z,57.75
2023-04-04T01:20:14.516Z,57.80
2023-04-04T01:23:38.477Z,57.32
2023-04-04T01:26:49.209Z,57.79
2023-04-04T01:29:55.951Z,58.02
2023-04-04T01:33:23.607Z,57.32
2023-04-04T01:36:42.666Z,57.58
2023-04-04T01:39:57.582Z,57.00
2023-04-04T01:43:08.191Z,57.39
2023-04-04T01:46:15.007Z,57.37
2023-04-04T01:49:22.689Z,57.71
2023-04-04T01:52:28.646Z,57.84
2023-04-04T01:55:35.392Z,57.78
2023-04-04T01:58:44.744Z,58.32
2023-04-04T02:01:52.373Z,57.71
2023-04-04T02:04:58.347Z,57.73
2023-04-04T02:08:05.116Z,58.19
2023-04-04T02:11:23.252Z,58.77
2023-04-04T02:14:33.297Z,57.86
2023-04-04T02:17:40.301Z,58.63
2023-04-04T02:20:47.263Z,58.58
2023-04-04T02:23:53.116Z,58.19
2023-04-04T02:27:00.637Z,58.13
2023-04-04T02:30:11.233Z,59.24
2023-04-04T02:33:17.977Z,59.34
2023-04-04T02:36:24.470Z,58.83
2023-04-04T02:39:32.885Z,58.35
2023-04-04T02:42:38.943Z,58.44
2023-04-04T02:45:48.372Z,58.69
2023-04-04T02:49:04.019Z,58.84
2023-04-04T02:52:11.985Z,58.80
2023-04-04T02:55:21.833Z,60.03
2023-04-04T02:58:28.663Z,59.30
2023-04-04T03:01:37.276Z,59.35
2023-04-04T03:04:44.881Z,58.65
2023-04-04T03:07:50.735Z,59.05
2023-04-04T03:10:57.474Z,58.98
2023-04-04T03:14:03.729Z,57.94
2023-04-04T03:17:20.061Z,59.44
2023-04-04T03:20:26.278Z,58.17
2023-04-04T03:23:33.118Z,59.03
2023-04-04T03:26:39.023Z,58.98
2023-04-04T03:29:46.169Z,58.51
2023-04-04T03:32:55.619Z,58.86
2023-04-04T03:36:02.911Z,59.04
2023-04-04T03:39:09.657Z,58.56
2023-04-04T03:42:16.402Z,58.99
2023-04-04T03:45:22.397Z,58.81
2023-04-04T03:48:32.496Z,59.48
2023-04-04T03:51:38.335Z,59.94
2023-04-04T03:54:45.120Z,59.76
2023-04-04T03:57:51.111Z,60.17
2023-04-04T04:00:59.529Z,58.80
2023-04-04T04:04:11.454Z,59.35
2023-04-04T04:07:19.909Z,59.25
2023-04-04T04:10:25.786Z,60.51
2023-04-04T04:13:32.599Z,60.20
2023-04-04T04:16:43.360Z,59.53
2023-04-04T04:19:56.752Z,60.07
2023-04-04T04:23:03.380Z,59.73
2023-04-04T04:26:10.272Z,60.16
2023-04-04T04:29:16.731Z,59.35
2023-04-04T04:32:23.940Z,59.08
2023-04-04T04:35:35.040Z,59.19
2023-04-04T04:38:42.113Z,59.60
2023-04-04T04:41:47.972Z,60.11
2023-04-04T04:44:54.919Z,58.98
2023-04-04T04:48:01.677Z,58.48
2023-04-04T04:51:12.406Z,59.25
2023-04-04T04:54:23.100Z,58.25
2023-04-04T04:57:34.688Z,58.32
2023-04-04T05:00:44.864Z,58.55
2023-04-04T05:03:53.358Z,59.22
2023-04-04T05:07:08.650Z,59.24
2023-04-04T05:10:15.662Z,58.40
2023-04-04T05:13:21.965Z,57.84
2023-04-04T05:16:31.535Z,57.41
2023-04-04T05:19:39.171Z,58.47
2023-04-04T05:22:51.528Z,57.60
2023-04-04T05:26:04.140Z,57.44
2023-04-04T05:29:13.823Z,56.91
2023-04-04T05:32:24.242Z,56.45
2023-04-04T05:35:41.642Z,57.05
2023-04-04T05:38:50.386Z,57.09
2023-04-04T05:41:59.518Z,56.87
2023-04-04T05:45:08.401Z,56.59
2023-04-04T05:48:18.700Z,56.32
2023-04-04T05:51:28.378Z,55.77
2023-04-04T05:54:51.515Z,56.35
2023-04-04T05:58:05.189Z,56.13
2023-04-04T06:01:23.908Z,55.31
2023-04-04T06:04:32.364Z,55.75
2023-04-04T06:07:41.612Z,55.59
2023-04-04T06:10:50.652Z,55.25
2023-04-04T06:13:57.480Z,55.36
2023-04-04T06:17:04.712Z,55.54
2023-04-04T06:20:13.173Z,54.99
2023-04-04T06:23:19.839Z,55.54
2023-04-04T06:26:31.951Z,54.78
2023-04-04T06:29:40.511Z,54.71
2023-04-04T06:32:48.654Z,54.26
2023-04-04T06:35:58.307Z,53.51
2023-04-04T06:39:04.953Z,53.88
2023-04-04T06:42:14.419Z,53.93
2023-04-04T06:45:27.977Z,53.58
2023-04-04T06:48:35.082Z,53.14
2023-04-04T06:51:44.895Z,51.38
2023-04-04T06:54:51.504Z,52.06
2023-04-04T06:58:01.118Z,52.03
2023-04-04T07:01:07.461Z,51.15
2023-04-04T07:04:14.173Z,51.57
2023-04-04T07:07:19.953Z,51.30
2023-04-04T07:10:28.363Z,51.03
2023-04-04T07:13:36.874Z,51.47
2023-04-04T07:16:44.015Z,51.06
2023-04-04T07:19:49.675Z,49.07
2023-04-04T07:22:56.266Z,49.00
2023-04-04T07:26:01.987Z,48.32
2023-04-04T07:29:11.794Z,47.99
2023-04-04T07:32:17.960Z,48.36
2023-04-04T07:35:24.486Z,48.72
2023-04-04T07:38:30.571Z,49.45
2023-04-04T07:41:37.103Z,49.58
2023-04-04T07:44:45.831Z,49.49
2023-04-04T07:47:52.712Z,49.70
2023-04-04T07:51:00.546Z,49.04
2023-04-04T07:54:07.574Z,49.08
2023-04-04T07:57:13.624Z,49.38
2023-04-04T08:00:26.779Z,49.50
2023-04-04T08:03:34.157Z,49.26
2023-04-04T08:06:40.880Z,49.09
2023-04-04T08:09:46.682Z,48.55
2023-04-04T08:12:55.261Z,48.48
2023-04-04T08:16:03.765Z,48.25
2023-04-04T08:19:14.798Z,48.45
2023-04-04T08:22:20.819Z,48.01
2023-04-04T08:25:27.488Z,48.41
2023-04-04T08:28:33.335Z,47.30
2023-04-04T08:31:43.603Z,46.66
2023-04-04T08:34:49.516Z,46.65
2023-04-04T08:37:56.052Z,45.76
2023-04-04T08:41:02.142Z,45.06
2023-04-04T08:44:13.747Z,44.36
2023-04-04T08:47:26.931Z,43.81
2023-04-04T08:50:35.028Z,43.41
2023-04-04T08:53:42.770Z,43.52
2023-04-04T08:56:51.237Z,43.99
2023-04-04T08:59:58.947Z,42.62
2023-04-04T09:03:22.361Z,43.10
2023-04-04T09:06:29.948Z,42.85
2023-04-04T09:09:38.227Z,42.10
2023-04-04T09:12:50.672Z,41.37
2023-04-04T09:16:01.425Z,41.18
2023-04-04T09:19:09.915Z,41.89
2023-04-04T09:22:20.405Z,40.64
2023-04-04T09:25:27.348Z,41.12
2023-04-04T09:28:35.786Z,41.20
2023-04-04T09:31:42.142Z,41.19
2023-04-04T09:34:51.906Z,42.65
2023-04-04T09:37:57.875Z,42.28
2023-04-04T09:41:04.787Z,41.57
2023-04-04T09:44:14.237Z,41.85
2023-04-04T09:47:31.437Z,41.84
2023-04-04T09:50:48.865Z,40.97
2023-04-04T09:53:55.493Z,40.53
2023-04-04T09:57:01.749Z,40.22
2023-04-04T10:00:11.865Z,40.15
2023-04-04T10:03:21.421Z,39.63
2023-04-04T10:06:31.071Z,39.39
2023-04-04T10:09:41.911Z,39.16
2023-04-04T10:12:51.056Z,38.74
2023-04-04T10:15:58.872Z,39.94
2023-04-04T10:19:08.101Z,39.42
2023-04-04T10:22:20.303Z,39.14
2023-04-04T10:25:27.507Z,39.58
2023-04-04T10:28:33.254Z,39.44
2023-04-04T10:31:47.566Z,40.31
2023-04-04T10:35:04.149Z,39.42
2023-04-04T10:38:15.319Z,39.28
2023-04-04T10:41:24.622Z,39.01
2023-04-04T10:44:36.188Z,38.49
2023-04-04T10:47:44.100Z,38.63
2023-04-04T10:50:52.486Z,37.96
2023-04-04T10:54:03.033Z,39.43
2023-04-04T10:57:10.285Z,39.25
2023-04-04T11:00:20.575Z,39.26
2023-04-04T11:03:27.647Z,40.26
2023-04-04T11:07:20.920Z,39.04
2023-04-04T11:10:34.061Z,38.39
2023-04-04T11:13:41.794Z,38.58
2023-04-04T11:16:50.545Z,37.99
2023-04-04T11:20:04.200Z,38.10
2023-04-04T11:23:17.665Z,38.40
2023-04-04T11:26:39.901Z,39.23
2023-04-04T11:29:56.193Z,38.30
2023-04-04T11:33:07.334Z,38.83
2023-04-04T11:36:47.952Z,37.60
2023-04-04T11:39:57.602Z,38.68
2023-04-04T11:43:12.405Z,38.97
2023-04-04T11:46:21.590Z,39.44
2023-04-04T11:49:35.616Z,39.23
2023-04-04T11:52:41.525Z,39.92
2023-04-04T11:55:53.540Z,38.69
2023-04-04T11:59:11.048Z,39.94
2023-04-04T12:02:25.135Z,39.43
2023-04-04T12:05:31.380Z,40.39
2023-04-04T12:08:38.943Z,40.33
2023-04-04T12:11:45.418Z,40.38
2023-04-04T12:15:10.266Z,41.01
2023-04-04T12:18:26.670Z,41.02
2023-04-04T12:21:35.784Z,40.99
2023-04-04T12:24:42.628Z,40.33
2023-04-04T12:27:50.311Z,40.66
2023-04-04T12:31:05.240Z,40.22
2023-04-04T12:34:19.867Z,40.21
2023-04-04T12:37:27.405Z,39.33
2023-04-04T12:40:40.305Z,39.82
2023-04-04T12:43:46.235Z,39.38
2023-04-04T12:46:56.011Z,39.55
2023-04-04T12:50:01.701Z,38.92
2023-04-04T12:53:24.641Z,39.26
2023-04-04T12:56:35.571Z,39.42
2023-04-04T12:59:42.533Z,40.04
2023-04-04T13:02:54.756Z,40.06
2023-04-04T13:06:03.011Z,39.00
2023-04-04T13:09:08.917Z,39.12
2023-04-04T13:12:15.621Z,39.88
2023-04-04T13:15:21.566Z,39.52
2023-04-04T13:18:42.118Z,40.04
2023-04-04T13:21:48.125Z,40.12
2023-04-04T13:24:54.719Z,40.33
2023-04-04T13:28:00.463Z,40.44
2023-04-04T13:31:08.387Z,39.73
2023-04-04T13:34:17.176Z,38.93
2023-04-04T13:37:25.181Z,39.38
2023-04-04T13:40:31.208Z,38.76
2023-04-04T13:43:37.799Z,38.36
2023-04-04T13:46:45.429Z,37.90
2023-04-04T13:49:54.816Z,38.36
2023-04-04T13:53:00.911Z,37.67
2023-04-04T13:59:16.783Z,38.22
2023-04-04T14:02:23.677Z,39.36
2023-04-04T14:05:32.474Z,39.51
2023-04-04T14:08:39.112Z,39.48
2023-04-04T14:11:45.002Z,38.81
2023-04-04T14:14:52.082Z,38.37
2023-04-04T14:17:57.984Z,38.71
2023-04-04T14:21:08.793Z,38.56
2023-04-04T14:24:14.775Z,38.57
2023-04-04T14:27:21.449Z,38.48
2023-04-04T14:30:27.554Z,38.30
2023-04-04T14:33:34.078Z,39.21
2023-04-04T14:36:42.667Z,39.17
2023-04-04T14:39:50.351Z,39.12
2023-04-04T14:42:56.116Z,39.38
2023-04-04T14:46:02.866Z,40.49
2023-04-04T14:49:09.010Z,40.24
2023-04-04T14:52:18.560Z,40.13
2023-04-04T14:55:24.328Z,40.55
2023-04-04T14:58:30.905Z,40.27
2023-04-04T15:01:36.956Z,38.93
2023-04-04T15:04:43.710Z,39.15
2023-04-04T15:07:53.155Z,39.40
2023-04-04T15:10:59.833Z,38.69
2023-04-04T15:14:06.119Z,39.15
2023-04-04T15:17:12.856Z,39.38
2023-04-04T15:20:18.825Z,39.83
2023-04-04T15:23:28.131Z,40.09
2023-04-04T15:26:33.752Z,40.03
2023-04-04T15:29:40.529Z,39.99
2023-04-04T15:32:46.304Z,40.62
2023-04-04T15:35:52.982Z,40.05
2023-04-04T15:39:01.419Z,40.17
2023-04-04T15:42:08.391Z,40.07
2023-04-04T15:45:18.846Z,39.80
2023-04-04T15:48:26.105Z,39.93
2023-04-04T15:51:33.522Z,40.14
2023-04-04T15:54:42.918Z,40.65
2023-04-04T15:57:49.238Z,40.33
2023-04-04T16:00:56.765Z,40.31
2023-04-04T16:04:02.490Z,39.97
2023-04-04T16:07:09.692Z,40.23
2023-04-04T16:10:18.503Z,39.65
2023-04-04T16:13:25.032Z,39.79
2023-04-04T16:16:30.694Z,39.38
2023-04-04T16:19:37.241Z,40.16
2023-04-04T16:22:43.079Z,40.29
2023-04-04T16:25:52.662Z,40.41
2023-04-04T16:28:58.255Z,40.63
2023-04-04T16:32:06.147Z,40.39
2023-04-04T16:35:13.053Z,39.96
2023-04-04T16:38:20.203Z,40.22
2023-04-04T16:41:29.956Z,39.90
2023-04-04T16:44:37.869Z,40.00
2023-04-04T16:47:43.771Z,39.84
2023-04-04T16:50:50.287Z,39.88
2023-04-04T16:53:56.700Z,40.01
2023-04-04T16:57:07.666Z,40.10
2023-04-04T17:00:14.930Z,40.58
2023-04-04T17:03:21.879Z,39.73
2023-04-04T17:06:27.955Z,40.62
2023-04-04T17:09:36.011Z,40.57
2023-04-04T17:12:46.915Z,40.70
2023-04-04T17:15:53.638Z,40.51
2023-04-04T17:18:59.360Z,40.81
2023-04-04T17:22:06.965Z,41.13
2023-04-04T17:25:13.234Z,41.02
2023-04-04T17:28:23.266Z,40.41
2023-04-04T17:31:29.310Z,40.30
2023-04-04T17:34:36.139Z,40.71
2023-04-04T17:37:42.031Z,40.52
2023-04-04T17:40:48.818Z,40.54
2023-04-04T17:43:57.599Z,40.33
2023-04-04T17:47:04.313Z,40.41
2023-04-04T17:50:11.920Z,40.45
2023-04-04T17:53:18.884Z,40.95
2023-04-04T17:56:24.920Z,40.91
2023-04-04T17:59:34.555Z,40.08
2023-04-04T18:02:40.600Z,40.41
2023-04-04T18:05:47.490Z,40.44
2023-04-04T18:08:53.309Z,40.38
2023-04-04T18:12:00.272Z,40.74
2023-04-04T18:15:10.676Z,41.33
2023-04-04T18:18:25.423Z,41.46
2023-04-04T18:21:31.509Z,41.36
2023-04-04T18:24:38.130Z,41.28
2023-04-04T18:27:43.885Z,40.64
2023-04-04T18:30:53.854Z,41.27
2023-04-04T18:33:59.697Z,41.12
2023-04-04T18:37:06.777Z,41.17
2023-04-04T18:40:13.528Z,40.90
2023-04-04T18:43:20.117Z,41.13
2023-04-04T18:46:29.018Z,41.78
2023-04-04T18:49:35.802Z,41.42
2023-04-04T18:52:43.774Z,41.73
2023-04-04T18:55:53.521Z,41.56
2023-04-04T18:58:59.549Z,42.14
2023-04-04T19:02:09.493Z,42.00
2023-04-04T19:05:16.678Z,41.92
2023-04-04T19:08:24.436Z,42.24
2023-04-04T19:11:30.979Z,42.31
2023-04-04T19:14:37.923Z,42.30
2023-04-04T19:17:47.566Z,42.16
2023-04-04T19:20:55.227Z,42.10
2023-04-04T19:24:02.532Z,42.30
2023-04-04T19:27:10.636Z,41.95
2023-04-04T19:30:47.848Z,42.68
2023-04-04T19:33:57.812Z,42.53
2023-04-04T19:37:03.705Z,42.19
2023-04-04T19:40:19.526Z,42.14
2023-04-04T19:43:26.555Z,42.31
2023-04-04T19:46:35.353Z,42.16
2023-04-04T19:49:45.781Z,43.00
2023-04-04T19:52:53.400Z,42.89
2023-04-04T19:55:59.783Z,42.66
2023-04-04T19:59:10.807Z,42.38
2023-04-04T20:03:09.161Z,43.49
2023-04-04T20:06:28.637Z,43.59
2023-04-04T20:09:40.397Z,43.69
2023-04-04T20:12:47.464Z,43.77
2023-04-04T20:16:02.118Z,43.25
2023-04-04T20:19:10.114Z,43.03
2023-04-04T20:22:19.230Z,43.16
2023-04-04T20:25:44.447Z,43.10
2023-04-04T20:28:50.197Z,42.75
2023-04-04T20:32:03.847Z,43.92
2023-04-04T20:35:11.670Z,42.84
2023-04-04T20:38:24.726Z,43.34
2023-04-04T20:41:30.568Z,43.21
2023-04-04T20:44:37.726Z,43.39
2023-04-04T20:47:49.477Z,43.58
2023-04-04T20:50:56.891Z,43.72
2023-04-04T20:54:07.123Z,44.01
2023-04-04T20:57:24.469Z,43.61
2023-04-04T21:00:44.328Z,44.40
2023-04-04T21:03:52.206Z,44.00
2023-04-04T21:06:59.980Z,43.36
2023-04-04T21:10:26.125Z,44.27
2023-04-04T21:13:39.954Z,44.15
2023-04-04T21:16:47.253Z,43.72
2023-04-04T21:19:53.391Z,43.87
2023-04-04T21:22:59.958Z,44.20
2023-04-04T21:26:14.170Z,44.21
2023-04-04T21:29:26.840Z,44.88
2023-04-04T21:32:33.574Z,43.82
2023-04-04T21:35:51.308Z,44.01
2023-04-04T21:39:03.859Z,43.58
2023-04-04T21:42:13.185Z,43.91
2023-04-04T21:45:18.868Z,44.17
2023-04-04T21:48:25.765Z,44.50
2023-04-04T21:51:32.162Z,43.86
2023-04-04T21:54:38.836Z,44.29
2023-04-04T21:57:47.446Z,44.67
2023-04-04T22:00:57.421Z,44.16
2023-04-04T22:04:03.676Z,43.46
2023-04-04T22:07:10.794Z,44.27
2023-04-04T22:10:19.295Z,44.75
2023-04-04T22:13:34.121Z,43.59
2023-04-04T22:16:43.265Z,44.25
2023-04-04T22:19:59.945Z,44.12
2023-04-04T22:23:07.802Z,44.61
2023-04-04T22:26:29.224Z,44.35
2023-04-04T22:29:38.055Z,44.17
2023-04-04T22:32:44.921Z,43.13
2023-04-04T22:35:51.397Z,43.89
2023-04-04T22:38:59.874Z,44.27
2023-04-04T22:42:05.728Z,43.76
2023-04-04T22:45:15.705Z,44.00
2023-04-04T22:48:25.044Z,44.12
2023-04-04T22:51:35.175Z,43.55
2023-04-04T22:54:41.002Z,44.51
2023-04-04T22:57:47.797Z,44.47
2023-04-04T23:00:56.513Z,44.15
2023-04-04T23:04:03.293Z,44.73
2023-04-04T23:07:09.290Z,44.63
2023-04-04T23:10:19.173Z,43.76
2023-04-04T23:13:25.836Z,43.70
2023-04-04T23:16:35.864Z,44.18
2023-04-04T23:19:42.546Z,44.89
2023-04-04T23:22:49.314Z,44.75
2023-04-04T23:25:54.992Z,43.99
2023-04-04T23:29:01.661Z,44.61
2023-04-04T23:32:11.605Z,44.52
2023-04-04T23:35:18.493Z,44.23
2023-04-04T23:38:24.134Z,44.33
2023-04-04T23:41:32.798Z,44.41
2023-04-04T23:44:38.502Z,44.18
2023-04-04T23:47:48.010Z,43.48
2023-04-04T23:50:54.706Z,43.71
2023-04-04T23:54:02.231Z,44.88
2023-04-04T23:57:08.111Z,46.76
